createdAt,value
2022-10-07T00:01:00.071Z,24.50
2022-10-07T00:03:28.418Z,24.90
2022-10-07T00:06:03.998Z,25.03
2022-10-07T00:08:32.071Z,22.83
2022-10-07T00:11:04.049Z,22.70
2022-10-07T00:13:33.556Z,22.13
2022-10-07T00:16:07.142Z,24.37
2022-10-07T00:18:36.164Z,23.83
2022-10-07T00:21:05.383Z,23.73
2022-10-07T00:23:33.529Z,26.53
2022-10-07T00:26:02.635Z,26.00
2022-10-07T00:28:31.129Z,25.30
2022-10-07T00:31:00.961Z,26.47
2022-10-07T00:33:31.250Z,23.00
2022-10-07T00:35:59.339Z,25.20
2022-10-07T00:38:27.490Z,22.97
2022-10-07T00:40:55.511Z,23.17
2022-10-07T00:43:25.085Z,24.10
2022-10-07T00:45:53.286Z,20.50
2022-10-07T00:48:24.867Z,21.97
2022-10-07T00:50:53.681Z,25.60
2022-10-07T00:53:21.778Z,20.67
2022-10-07T00:55:49.787Z,21.17
2022-10-07T00:58:19.405Z,21.63
2022-10-07T01:00:47.515Z,23.17
2022-10-07T01:03:15.825Z,20.67
2022-10-07T01:05:45.228Z,22.33
2022-10-07T01:08:15.847Z,23.97
2022-10-07T01:10:47.208Z,21.63
2022-10-07T01:13:18.139Z,23.93
2022-10-07T01:15:50.116Z,19.57
2022-10-07T01:18:19.551Z,22.53
2022-10-07T01:20:53.305Z,19.30
2022-10-07T01:23:33.748Z,22.90
2022-10-07T01:26:30.809Z,19.70
2022-10-07T01:29:01.078Z,19.40
2022-10-07T01:31:32.834Z,21.67
2022-10-07T01:34:00.913Z,21.23
2022-10-07T01:36:28.939Z,20.27
2022-10-07T01:38:59.407Z,19.33
2022-10-07T01:41:27.550Z,18.47
2022-10-07T01:43:55.814Z,18.33
2022-10-07T01:46:26.426Z,18.93
2022-10-07T01:48:55.005Z,18.67
2022-10-07T01:51:24.510Z,16.77
2022-10-07T01:53:55.393Z,19.83
2022-10-07T01:56:35.290Z,17.20
2022-10-07T01:59:12.473Z,19.83
2022-10-07T02:01:43.869Z,17.70
2022-10-07T02:04:23.603Z,19.73
2022-10-07T02:06:53.736Z,18.67
2022-10-07T02:09:25.254Z,19.03
2022-10-07T02:11:56.414Z,19.90
2022-10-07T02:14:24.768Z,17.67
2022-10-07T02:16:56.699Z,18.77
2022-10-07T02:19:25.663Z,18.00
2022-10-07T02:21:54.343Z,17.87
2022-10-07T02:24:23.550Z,19.40
2022-10-07T02:26:51.673Z,20.73
2022-10-07T02:29:20.439Z,18.33
2022-10-07T02:31:48.671Z,20.80
2022-10-07T02:34:20.411Z,20.13
2022-10-07T02:36:51.037Z,19.83
2022-10-07T02:39:19.064Z,18.80
2022-10-07T02:41:49.926Z,21.00
2022-10-07T02:44:25.769Z,19.93
2022-10-07T02:46:55.465Z,21.70
2022-10-07T02:49:24.981Z,19.20
2022-10-07T02:51:56.077Z,19.33
2022-10-07T02:54:25.798Z,22.53
2022-10-07T02:56:53.920Z,21.93
2022-10-07T02:59:22.054Z,22.67
2022-10-07T03:01:51.399Z,23.33
2022-10-07T03:04:19.471Z,24.30
2022-10-07T03:06:49.707Z,29.33
2022-10-07T03:09:17.736Z,25.27
2022-10-07T03:11:45.776Z,26.37
2022-10-07T03:14:13.804Z,22.93
2022-10-07T03:16:42.013Z,24.73
2022-10-07T03:19:10.975Z,30.63
2022-10-07T03:21:40.594Z,26.53
2022-10-07T03:24:11.356Z,28.33
2022-10-07T03:26:39.822Z,31.70
2022-10-07T03:29:08.506Z,28.40
2022-10-07T03:31:36.803Z,31.03
2022-10-07T03:34:04.889Z,36.13
2022-10-07T03:36:33.148Z,30.13
2022-10-07T03:39:01.394Z,34.90
2022-10-07T03:41:30.882Z,31.50
2022-10-07T03:43:59.250Z,29.33
2022-10-07T03:46:27.463Z,27.97
2022-10-07T03:48:55.617Z,35.37
2022-10-07T03:51:23.895Z,35.13
2022-10-07T03:53:54.667Z,47.27
2022-10-07T03:56:22.842Z,27.33
2022-10-07T03:58:52.808Z,27.27
2022-10-07T04:01:20.936Z,22.33
2022-10-07T04:03:49.070Z,28.87
2022-10-07T04:06:17.173Z,20.20
2022-10-07T04:08:45.205Z,23.33
2022-10-07T04:11:13.356Z,22.53
2022-10-07T04:13:41.400Z,22.70
2022-10-07T04:16:11.319Z,21.73
2022-10-07T04:18:39.385Z,19.03
2022-10-07T04:21:07.500Z,19.47
2022-10-07T04:23:35.655Z,18.73
2022-10-07T04:26:07.628Z,18.80
2022-10-07T04:28:35.751Z,21.73
2022-10-07T04:31:04.910Z,18.63
2022-10-07T04:33:34.700Z,16.80
2022-10-07T04:36:05.723Z,16.73
2022-10-07T04:38:33.754Z,18.67
2022-10-07T04:41:04.603Z,21.70
2022-10-07T04:43:34.142Z,16.40
2022-10-07T04:46:03.679Z,18.97
2022-10-07T04:48:31.733Z,16.90
2022-10-07T04:51:03.966Z,19.87
2022-10-07T04:53:32.406Z,17.43
2022-10-07T04:56:00.943Z,18.17
2022-10-07T04:58:29.213Z,20.87
2022-10-07T05:00:57.936Z,20.83
2022-10-07T05:03:27.039Z,23.43
2022-10-07T05:05:55.891Z,21.17
2022-10-07T05:08:25.659Z,21.90
2022-10-07T05:10:57.138Z,20.10
2022-10-07T05:13:26.396Z,22.33
2022-10-07T05:15:55.175Z,18.33
2022-10-07T05:18:23.621Z,19.27
2022-10-07T05:20:52.354Z,21.10
2022-10-07T05:23:27.124Z,23.10
2022-10-07T05:26:01.724Z,20.17
2022-10-07T05:28:29.957Z,21.57
2022-10-07T05:31:05.859Z,23.00
2022-10-07T05:33:34.204Z,22.37
2022-10-07T05:36:02.344Z,22.30
2022-10-07T05:38:30.457Z,23.57
2022-10-07T05:41:00.531Z,20.73
2022-10-07T05:43:28.899Z,19.30
2022-10-07T05:46:01.744Z,22.40
2022-10-07T05:48:32.370Z,23.60
2022-10-07T05:51:02.557Z,20.47
2022-10-07T05:53:30.975Z,22.33
2022-10-07T05:56:00.568Z,24.17
2022-10-07T05:58:28.669Z,20.13
2022-10-07T06:01:01.000Z,25.47
2022-10-07T06:03:32.385Z,24.50
2022-10-07T06:06:00.820Z,25.03
2022-10-07T06:08:28.887Z,21.73
2022-10-07T06:11:16.437Z,26.53
2022-10-07T06:13:49.188Z,21.63
2022-10-07T06:16:17.490Z,23.50
2022-10-07T06:18:46.040Z,20.87
2022-10-07T06:21:14.313Z,22.93
2022-10-07T06:23:42.338Z,24.80
2022-10-07T06:26:11.546Z,23.40
2022-10-07T06:28:40.367Z,22.30
2022-10-07T06:31:10.915Z,22.33
2022-10-07T06:33:39.010Z,21.00
2022-10-07T06:36:07.941Z,22.03
2022-10-07T06:38:36.031Z,20.67
2022-10-07T06:41:05.314Z,17.63
2022-10-07T06:43:34.457Z,17.23
2022-10-07T06:46:03.838Z,23.30
2022-10-07T06:48:34.085Z,21.33
2022-10-07T06:51:03.383Z,21.50
2022-10-07T06:53:31.472Z,16.87
2022-10-07T06:56:02.869Z,21.40
2022-10-07T06:58:31.033Z,19.33
2022-10-07T07:00:59.715Z,22.50
2022-10-07T07:03:28.141Z,22.73
2022-10-07T07:05:57.730Z,20.13
2022-10-07T07:08:27.896Z,20.87
2022-10-07T07:10:56.216Z,20.80
2022-10-07T07:13:24.744Z,16.87
2022-10-07T07:15:55.952Z,17.90
2022-10-07T07:18:24.437Z,18.83
2022-10-07T07:20:52.492Z,19.30
2022-10-07T07:23:22.009Z,22.03
2022-10-07T07:25:50.081Z,17.20
2022-10-07T07:28:18.857Z,13.17
2022-10-07T07:30:48.909Z,16.07
2022-10-07T07:33:17.085Z,14.77
2022-10-07T07:35:45.342Z,11.47
2022-10-07T07:38:13.469Z,10.70
2022-10-07T07:40:42.865Z,13.87
2022-10-07T07:43:10.908Z,10.47
2022-10-07T07:45:39.130Z,9.83
2022-10-07T07:48:07.186Z,9.83
2022-10-07T07:50:35.227Z,12.63
2022-10-07T07:53:04.889Z,11.90
2022-10-07T07:55:32.900Z,9.63
2022-10-07T07:58:02.310Z,12.07
2022-10-07T08:00:30.581Z,12.83
2022-10-07T08:02:59.781Z,16.40
2022-10-07T08:05:28.134Z,10.07
2022-10-07T08:07:56.212Z,11.63
2022-10-07T08:10:24.258Z,12.47
2022-10-07T08:12:52.331Z,11.40
2022-10-07T08:15:21.729Z,12.17
2022-10-07T08:17:50.297Z,11.03
2022-10-07T08:20:19.322Z,13.93
2022-10-07T08:22:47.651Z,15.87
2022-10-07T08:25:16.262Z,13.03
2022-10-07T08:27:44.871Z,12.77
2022-10-07T08:30:13.775Z,17.17
2022-10-07T08:32:43.189Z,13.93
2022-10-07T08:35:11.261Z,14.40
2022-10-07T08:37:39.340Z,11.53
2022-10-07T08:40:08.354Z,11.23
2022-10-07T08:42:38.043Z,11.63
2022-10-07T08:45:08.627Z,12.07
2022-10-07T08:47:38.673Z,12.23
2022-10-07T08:50:09.867Z,9.83
2022-10-07T08:52:44.577Z,12.20
2022-10-07T08:55:18.703Z,11.97
2022-10-07T08:58:11.816Z,10.93
2022-10-07T09:00:42.291Z,10.23
2022-10-07T09:03:15.872Z,11.23
2022-10-07T09:05:46.836Z,8.87
2022-10-07T09:08:17.434Z,10.10
2022-10-07T09:10:48.709Z,10.77
2022-10-07T09:13:19.726Z,12.27
2022-10-07T09:15:50.830Z,10.03
2022-10-07T09:18:20.802Z,10.23
2022-10-07T09:20:53.306Z,11.30
2022-10-07T09:23:23.117Z,10.17
2022-10-07T09:25:51.894Z,12.27
2022-10-07T09:28:22.670Z,11.80
2022-10-07T09:30:50.875Z,10.73
2022-10-07T09:33:20.807Z,9.63
2022-10-07T09:35:57.575Z,10.53
2022-10-07T09:38:33.636Z,8.17
2022-10-07T09:41:19.742Z,12.37
2022-10-07T09:43:59.830Z,11.10
2022-10-07T09:46:37.796Z,7.00
2022-10-07T09:49:06.040Z,10.30
2022-10-07T09:51:35.509Z,8.10
2022-10-07T09:54:04.436Z,10.73
2022-10-07T09:56:39.590Z,8.93
2022-10-07T09:59:18.682Z,8.57
2022-10-07T10:01:51.168Z,9.07
2022-10-07T10:04:19.750Z,11.13
2022-10-07T10:06:50.057Z,8.97
2022-10-07T10:09:20.881Z,8.30
2022-10-07T10:12:08.232Z,8.90
2022-10-07T10:14:47.509Z,6.60
2022-10-07T10:17:32.262Z,7.60
2022-10-07T10:20:32.704Z,8.67
2022-10-07T10:23:03.046Z,6.17
2022-10-07T10:25:57.652Z,8.80
2022-10-07T10:28:34.285Z,7.00
2022-10-07T10:31:06.537Z,6.63
2022-10-07T10:33:35.926Z,6.43
2022-10-07T10:36:10.181Z,7.20
2022-10-07T10:38:42.360Z,7.17
2022-10-07T10:41:15.228Z,8.67
2022-10-07T10:43:56.669Z,7.37
2022-10-07T10:46:40.121Z,7.27
2022-10-07T10:49:14.020Z,8.17
2022-10-07T10:51:49.878Z,5.20
2022-10-07T10:54:24.323Z,6.90
2022-10-07T10:56:55.129Z,4.80
2022-10-07T10:59:31.249Z,4.73
2022-10-07T11:02:01.855Z,6.73
2022-10-07T11:04:43.597Z,4.27
2022-10-07T11:07:14.644Z,3.83
2022-10-07T11:09:46.223Z,9.70
2022-10-07T11:12:22.483Z,6.50
2022-10-07T11:14:56.908Z,5.77
2022-10-07T11:17:28.642Z,8.13
2022-10-07T11:19:58.860Z,7.37
2022-10-07T11:22:32.463Z,3.50
2022-10-07T11:25:05.009Z,8.87
2022-10-07T11:27:33.724Z,4.43
2022-10-07T11:30:04.098Z,7.90
2022-10-07T11:32:38.310Z,5.77
2022-10-07T11:35:13.551Z,4.20
2022-10-07T11:37:53.805Z,6.50
2022-10-07T11:40:28.182Z,4.00
2022-10-07T11:42:57.696Z,7.60
2022-10-07T11:45:27.383Z,5.57
2022-10-07T11:47:56.811Z,8.33
2022-10-07T11:50:26.588Z,3.90
2022-10-07T11:52:56.125Z,6.77
2022-10-07T11:55:27.308Z,5.43
2022-10-07T11:57:56.967Z,6.37
2022-10-07T12:00:26.967Z,5.03
2022-10-07T12:02:55.244Z,4.00
2022-10-07T12:05:57.603Z,5.97
2022-10-07T12:08:29.264Z,6.23
2022-10-07T12:11:14.459Z,4.23
2022-10-07T12:13:43.848Z,5.97
2022-10-07T12:16:54.247Z,5.40
2022-10-07T12:19:23.917Z,6.87
2022-10-07T12:22:17.816Z,5.17
2022-10-07T12:24:47.071Z,8.13
2022-10-07T12:27:17.651Z,8.00
2022-10-07T12:29:58.716Z,4.20
2022-10-07T12:32:57.478Z,3.80
2022-10-07T12:35:55.614Z,3.97
2022-10-07T12:38:25.769Z,3.97
2022-10-07T12:41:02.048Z,5.43
2022-10-07T12:43:39.219Z,3.80
2022-10-07T12:46:07.739Z,8.27
2022-10-07T12:48:38.054Z,5.77
2022-10-07T12:51:06.370Z,3.60
2022-10-07T12:53:37.453Z,4.47
2022-10-07T12:56:05.709Z,4.43
2022-10-07T12:59:14.072Z,6.30
2022-10-07T13:01:55.067Z,5.60
2022-10-07T13:04:33.469Z,3.77
2022-10-07T13:07:36.650Z,3.97
2022-10-07T13:10:25.238Z,6.57
2022-10-07T13:12:54.135Z,3.93
2022-10-07T13:15:42.944Z,7.77
2022-10-07T13:18:17.756Z,8.43
2022-10-07T13:20:55.640Z,13.83
2022-10-07T13:23:27.248Z,13.40
2022-10-07T13:25:57.053Z,7.57
2022-10-07T13:28:26.050Z,4.13
2022-10-07T13:30:55.568Z,4.63
2022-10-07T13:33:26.432Z,3.97
2022-10-07T13:39:21.860Z,10.63
2022-10-07T13:41:51.083Z,5.20
2022-10-07T13:44:20.400Z,6.83
2022-10-07T13:46:53.868Z,5.93
2022-10-07T13:49:23.696Z,4.33
2022-10-07T13:51:56.148Z,6.17
2022-10-07T13:54:27.938Z,6.80
2022-10-07T13:56:56.062Z,7.03
2022-10-07T13:59:24.184Z,5.27
2022-10-07T14:01:53.274Z,5.20
2022-10-07T14:04:23.137Z,4.27
2022-10-07T14:06:53.649Z,5.83
2022-10-07T14:09:26.483Z,8.77
2022-10-07T14:11:57.334Z,5.30
2022-10-07T14:14:27.268Z,6.83
2022-10-07T14:16:59.464Z,5.63
2022-10-07T14:19:32.877Z,8.20
2022-10-07T14:22:02.825Z,7.20
2022-10-07T14:24:32.451Z,5.10
2022-10-07T14:27:00.655Z,4.50
2022-10-07T14:29:38.991Z,5.00
2022-10-07T14:32:32.501Z,6.90
2022-10-07T14:35:21.827Z,5.77
2022-10-07T14:37:50.293Z,7.33
2022-10-07T14:40:22.619Z,6.67
2022-10-07T14:42:52.799Z,5.03
2022-10-07T14:45:22.275Z,5.07
2022-10-07T14:47:51.253Z,5.93
2022-10-07T14:50:20.480Z,4.77
2022-10-07T14:52:51.849Z,7.47
2022-10-07T14:55:23.277Z,5.53
2022-10-07T14:57:51.503Z,4.87
2022-10-07T15:00:20.549Z,5.93
2022-10-07T15:02:50.317Z,5.10
2022-10-07T15:05:18.968Z,4.77
2022-10-07T15:07:47.362Z,5.43
2022-10-07T15:10:16.381Z,6.90
2022-10-07T15:12:46.139Z,7.27
2022-10-07T15:15:14.609Z,5.40
2022-10-07T15:17:42.980Z,6.03
2022-10-07T15:20:12.658Z,5.20
2022-10-07T15:22:40.762Z,6.10
2022-10-07T15:25:10.201Z,5.30
2022-10-07T15:27:38.840Z,6.03
2022-10-07T15:30:09.393Z,7.53
2022-10-07T15:32:37.543Z,6.63
2022-10-07T15:35:06.203Z,7.47
2022-10-07T15:37:34.360Z,5.23
2022-10-07T15:40:02.476Z,5.50
2022-10-07T15:42:31.910Z,6.23
2022-10-07T15:45:00.135Z,7.00
2022-10-07T15:47:29.884Z,5.37
2022-10-07T15:49:57.987Z,7.00
2022-10-07T15:52:26.137Z,5.17
2022-10-07T15:54:54.404Z,5.57
2022-10-07T15:57:24.457Z,5.80
2022-10-07T15:59:54.787Z,8.50
2022-10-07T16:02:23.703Z,6.43
2022-10-07T16:04:53.194Z,8.80
2022-10-07T16:07:21.419Z,5.97
2022-10-07T16:09:49.503Z,7.80
2022-10-07T16:12:17.600Z,8.77
2022-10-07T16:14:47.491Z,9.13
2022-10-07T16:17:15.647Z,6.57
2022-10-07T16:19:44.591Z,7.23
2022-10-07T16:22:14.127Z,7.37
2022-10-07T16:24:42.537Z,7.83
2022-10-07T16:27:10.665Z,8.47
2022-10-07T16:29:56.398Z,8.07
2022-10-07T16:32:24.555Z,7.07
2022-10-07T16:34:52.686Z,9.67
2022-10-07T16:37:22.182Z,12.53
2022-10-07T16:39:50.353Z,11.93
2022-10-07T16:42:18.523Z,14.00
2022-10-07T16:44:50.590Z,11.57
2022-10-07T16:47:19.076Z,9.93
2022-10-07T16:49:47.420Z,13.17
2022-10-07T16:52:16.270Z,13.13
2022-10-07T16:54:45.768Z,14.43
2022-10-07T16:57:14.689Z,13.37
2022-10-07T16:59:42.854Z,11.50
2022-10-07T17:02:11.091Z,15.03
2022-10-07T17:04:39.199Z,12.00
2022-10-07T17:07:07.376Z,17.03
2022-10-07T17:09:35.726Z,10.57
2022-10-07T17:12:06.899Z,11.50
2022-10-07T17:14:35.478Z,10.63
2022-10-07T17:17:04.362Z,12.03
2022-10-07T17:19:33.770Z,9.03
2022-10-07T17:22:02.798Z,8.83
2022-10-07T17:24:31.426Z,9.97
2022-10-07T17:26:59.782Z,12.13
2022-10-07T17:29:30.932Z,13.60
2022-10-07T17:31:59.512Z,13.20
2022-10-07T17:34:27.834Z,10.83
2022-10-07T17:36:57.906Z,11.43
2022-10-07T17:39:26.113Z,10.47
2022-10-07T17:41:54.443Z,11.90
2022-10-07T17:44:22.527Z,10.63
2022-10-07T17:46:52.690Z,11.90
2022-10-07T17:49:21.039Z,9.57
2022-10-07T17:51:49.606Z,9.63
2022-10-07T17:54:18.232Z,13.73
2022-10-07T17:56:48.018Z,12.43
2022-10-07T17:59:16.452Z,10.40
2022-10-07T18:01:45.358Z,10.60
2022-10-07T18:04:19.930Z,11.17
2022-10-07T18:06:50.725Z,11.10
2022-10-07T18:09:19.490Z,13.43
2022-10-07T18:12:05.026Z,10.70
2022-10-07T18:14:53.858Z,12.03
2022-10-07T18:17:22.610Z,12.47
2022-10-07T18:19:52.150Z,12.37
2022-10-07T18:22:20.577Z,11.27
2022-10-07T18:24:48.849Z,10.23
2022-10-07T18:27:17.143Z,12.43
2022-10-07T18:29:45.973Z,10.30
2022-10-07T18:32:14.234Z,12.23
2022-10-07T18:34:42.626Z,10.33
2022-10-07T18:37:12.486Z,11.23
2022-10-07T18:39:40.981Z,10.50
2022-10-07T18:42:09.378Z,14.13
2022-10-07T18:44:37.600Z,12.67
2022-10-07T18:47:05.866Z,12.93
2022-10-07T18:49:34.131Z,11.03
2022-10-07T18:52:02.899Z,11.30
2022-10-07T18:54:32.575Z,11.53
2022-10-07T18:57:00.985Z,13.43
2022-10-07T18:59:29.219Z,13.17
2022-10-07T19:01:57.551Z,13.83
2022-10-07T19:04:25.903Z,17.30
2022-10-07T19:06:54.153Z,13.63
2022-10-07T19:09:22.810Z,14.37
2022-10-07T19:11:52.290Z,15.87
2022-10-07T19:14:20.200Z,14.03
2022-10-07T19:16:49.947Z,17.23
2022-10-07T19:19:20.782Z,17.30
2022-10-07T19:21:49.794Z,16.00
2022-10-07T19:24:17.915Z,17.00
2022-10-07T19:26:47.137Z,14.83
2022-10-07T19:29:18.184Z,14.63
2022-10-07T19:31:48.738Z,13.87
2022-10-07T19:34:17.902Z,14.23
2022-10-07T19:36:47.276Z,15.00
2022-10-07T19:39:15.870Z,14.40
2022-10-07T19:41:44.286Z,14.50
2022-10-07T19:44:12.615Z,15.30
2022-10-07T19:46:42.160Z,15.83
2022-10-07T19:49:10.408Z,16.47
2022-10-07T19:51:38.986Z,15.90
2022-10-07T19:54:10.255Z,16.03
2022-10-07T19:56:38.948Z,17.80
2022-10-07T19:59:07.857Z,17.67
2022-10-07T20:01:37.627Z,16.90
2022-10-07T20:04:08.235Z,14.70
2022-10-07T20:06:37.565Z,15.03
2022-10-07T20:09:05.824Z,15.67
2022-10-07T20:11:33.958Z,17.37
2022-10-07T20:14:03.096Z,18.37
2022-10-07T20:16:31.552Z,15.37
2022-10-07T20:19:01.371Z,16.10
2022-10-07T20:21:31.783Z,16.20
2022-10-07T20:23:59.911Z,17.23
2022-10-07T20:26:29.093Z,17.53
2022-10-07T20:28:58.618Z,16.10
2022-10-07T20:31:28.473Z,17.40
2022-10-07T20:33:57.398Z,16.80
2022-10-07T20:36:27.358Z,16.53
2022-10-07T20:39:14.932Z,16.63
2022-10-07T20:42:00.589Z,16.20
2022-10-07T20:44:28.804Z,15.83
2022-10-07T20:46:57.294Z,16.83
2022-10-07T20:49:29.074Z,19.90
2022-10-07T20:51:58.106Z,16.63
2022-10-07T20:54:27.697Z,17.43
2022-10-07T20:56:57.877Z,20.67
2022-10-07T20:59:26.236Z,18.47
2022-10-07T21:01:54.445Z,17.97
2022-10-07T21:04:22.720Z,19.73
2022-10-07T21:06:51.360Z,19.13
2022-10-07T21:09:19.548Z,18.90
2022-10-07T21:11:48.988Z,20.07
2022-10-07T21:14:17.303Z,18.10
2022-10-07T21:16:46.329Z,18.20
2022-10-07T21:19:14.461Z,22.40
2022-10-07T21:21:42.556Z,19.03
2022-10-07T21:24:10.711Z,17.47
2022-10-07T21:26:38.877Z,20.17
2022-10-07T21:29:08.433Z,19.83
2022-10-07T21:31:36.787Z,19.00
2022-10-07T21:34:07.832Z,18.47
2022-10-07T21:36:36.542Z,21.10
2022-10-07T21:39:05.258Z,20.03
2022-10-07T21:41:34.436Z,21.63
2022-10-07T21:44:03.415Z,20.23
2022-10-07T21:46:36.895Z,20.27
2022-10-07T21:49:06.268Z,20.30
2022-10-07T21:51:34.891Z,20.37
2022-10-07T21:54:03.079Z,18.20
2022-10-07T21:56:32.240Z,22.70
2022-10-07T21:59:01.598Z,21.20
2022-10-07T22:01:30.161Z,24.70
2022-10-07T22:04:00.327Z,23.27
2022-10-07T22:06:46.240Z,22.43
2022-10-07T22:09:14.849Z,26.93
2022-10-07T22:11:43.036Z,27.23
2022-10-07T22:14:13.047Z,21.50
2022-10-07T22:16:41.480Z,26.10
2022-10-07T22:19:12.174Z,29.67
2022-10-07T22:21:41.630Z,27.67
2022-10-07T22:24:09.897Z,29.00
2022-10-07T22:26:40.556Z,24.90
2022-10-07T22:29:09.532Z,30.13
2022-10-07T22:31:37.833Z,25.47
2022-10-07T22:34:06.082Z,22.70
2022-10-07T22:36:35.380Z,23.70
2022-10-07T22:39:03.579Z,27.80
2022-10-07T22:41:32.386Z,24.77
2022-10-07T22:44:00.442Z,30.60
2022-10-07T22:46:29.076Z,23.53
2022-10-07T22:48:58.092Z,25.37
2022-10-07T22:51:28.540Z,24.43
2022-10-07T22:53:58.343Z,25.33
2022-10-07T22:56:27.874Z,23.70
2022-10-07T22:58:58.077Z,29.00
2022-10-07T23:01:28.647Z,29.00
2022-10-07T23:03:56.912Z,24.80
2022-10-07T23:06:25.634Z,24.53
2022-10-07T23:08:53.719Z,23.47
2022-10-07T23:11:24.183Z,25.73
2022-10-07T23:13:52.451Z,26.37
2022-10-07T23:16:21.596Z,27.67
2022-10-07T23:18:50.437Z,25.00
2022-10-07T23:21:19.742Z,26.73
2022-10-07T23:23:48.425Z,25.67
2022-10-07T23:26:18.857Z,26.63
2022-10-07T23:28:48.720Z,24.93
2022-10-07T23:31:18.369Z,27.00
2022-10-07T23:33:47.432Z,27.57
2022-10-07T23:36:16.011Z,27.73
2022-10-07T23:38:44.798Z,27.80
2022-10-07T23:41:13.351Z,26.23
2022-10-07T23:43:41.697Z,25.73
2022-10-07T23:46:14.422Z,26.47
2022-10-07T23:48:42.923Z,29.67
2022-10-07T23:51:12.085Z,25.47
2022-10-07T23:53:40.325Z,26.03
2022-10-07T23:56:08.474Z,27.60
2022-10-07T23:58:36.883Z,27.30
